CheckWX is a tool to help pilots better visualize weather data.  It is not intended as a substitute for an official pre-flight weather briefing.

18:27:46 UTC

NSTU TAF
Pago Pago International Airport
Pago Pago, American Samoa
NSTU 171727Z 1718/1818 VRB06KT P6SM VCSH SCT018 BKN040 BKN100

Oct-17@
18:00 UTC

Oct-17 @ 18:00 UTC

Oct-18@
18:00 UTC

Oct-18 @ 18:00 UTC

NSTU 171727Z 1718/1818 VRB06KT P6SM VCSH SCT018 BKN040 BKN100
Wind
  • Variable at 6 KTS
Cloud Levels
  • Scattered at 1,800' AGL
  • Broken at 4,000' AGL
  • Broken at 10,000' AGL